Flight Track Log - Related Links

Times and Time Zones

All times are in EDT time to prevent confusion due to time zone crossing. See the RPA4886 flight status page for this flight to view local times or setup timezone preferences in your user account.

Time Position Orientation Groundspeed Altitude Reporting Facility
EDT Latitude Longitude Course Direction KTS MPH feet Rate Location/Type
Wed 05:47:21 PM 38.9500 -77.5333 North 200 230 2,000  Level Potomac TRACON
Wed 05:48:21 PM 38.9667 -77.6000 288° West 214 246 4,300 2,000 Climbing Potomac TRACON
Wed 05:49:00 PM 39.2111 -77.4500 North  Level FlightAware Approximate
Wed 05:49:51 PM 39.0158 -77.7047 301° West 239 275 7,000  Level Washington Center
Wed 05:50:00 PM 39.3036 -77.4500 North  Level FlightAware Approximate
Wed 05:50:52 PM 39.0825 -77.7094 357° North 234 269 7,400  Level Washington Center
Wed 05:51:00 PM 39.3962 -77.4500 North  Level FlightAware Approximate
Wed 05:51:50 PM 39.1558 -77.6767 19° North 240 276 9,300  Level Washington Center
Wed 05:52:00 PM 39.4888 -77.4500 North  Level FlightAware Approximate
Wed 05:52:50 PM 39.2272 -77.6439 20° North 245 282 11,300  Level Washington Center
Wed 05:53:51 PM 39.2944 -77.6111 21° North 251 289 13,300 1,835 Climbing Washington Center
Wed 05:54:51 PM 39.3617 -77.5806 19° North 251 289 15,000 1,339 Climbing Washington Center
Wed 05:55:52 PM 39.4289 -77.5503 19° North 251 289 16,000 328 Climbing Washington Center
Wed 05:57:54 PM 39.5958 -77.4719 20° North 300 345 16,000 100 Level New York Center
Wed 05:58:52 PM 39.6886 -77.4511 10° North 336 387 16,300 508 Climbing New York Center
Wed 05:59:52 PM 39.7756 -77.4269 12° North 328 377 17,000 350 Climbing New York Center
Wed 06:00:52 PM 39.8594 -77.3808 23° Northeast 315 362 17,000  Level New York Center
Wed 06:01:52 PM 39.9411 -77.3369 22° Northeast 321 369 17,000  Level New York Center
Wed 06:02:53 PM 40.0292 -77.2911 22° Northeast 321 369 17,000  Level New York Center
Wed 06:03:54 PM 40.0981 -77.2542 22° Northeast 321 369 17,000  Level New York Center
Wed 06:04:54 PM 40.1944 -77.2061 21° North 321 369 17,000  Level New York Center
Wed 06:05:52 PM 40.2889 -77.1575 21° North 321 369 17,000  Level New York Center
Wed 06:06:53 PM 40.3661 -77.1131 24° Northeast 326 375 17,000  Level New York Center
Wed 06:07:52 PM 40.4647 -77.0647 20° North 332 382 17,000  Level New York Center
Wed 06:08:53 PM 40.5442 -77.0228 22° Northeast 339 390 17,000  Level New York Center
Wed 06:09:53 PM 40.6386 -76.9711 23° Northeast 339 390 17,000  Level New York Center
Wed 06:10:54 PM 40.7178 -76.9289 22° Northeast 334 384 17,000  Level New York Center
Wed 06:11:54 PM 40.8142 -76.8775 22° Northeast 334 384 17,000  Level New York Center
Wed 06:12:52 PM 40.8936 -76.8350 22° Northeast 341 392 17,000  Level New York Center
Wed 06:13:53 PM 40.9814 -76.7878 22° Northeast 341 392 17,000  Level New York Center
Wed 06:14:54 PM 41.0672 -76.7406 23° Northeast 336 387 17,000  Level New York Center
Wed 06:15:52 PM 41.1550 -76.6931 22° Northeast 336 387 17,000  Level New York Center
Wed 06:16:53 PM 41.2514 -76.6381 23° Northeast 341 392 17,000  Level New York Center
Wed 06:17:53 PM 41.3392 -76.5903 22° Northeast 341 392 17,000  Level New York Center
Wed 06:18:54 PM 41.4183 -76.5475 22° Northeast 341 392 17,000  Level New York Center
Wed 06:19:52 PM 41.5042 -76.4994 23° Northeast 341 392 17,000  Level New York Center
Wed 06:20:53 PM 41.6003 -76.4494 21° North 341 392 17,000  Level New York Center
Wed 06:21:54 PM 41.6858 -76.3983 24° Northeast 335 386 17,000  Level New York Center
Wed 06:23:26 PM 41.8253 -76.3242 22° Northeast 364 419 17,000  Level Boston Center
Wed 06:24:26 PM 41.9144 -76.2767 22° Northeast 346 398 17,000  Level Boston Center
Wed 06:25:26 PM 42.0017 -76.2261 23° Northeast 341 392 17,000  Level Boston Center
Wed 06:26:26 PM 42.0867 -76.1781 23° Northeast 336 387 17,000  Level Boston Center
Wed 06:27:26 PM 42.1656 -76.1183 29° Northeast 336 387 17,000  Level Boston Center
Wed 06:28:26 PM 42.2069 -76.0000 65° Northeast 317 365 17,000  Level Boston Center
Wed 06:29:26 PM 42.2458 -75.8844 66° East 327 376 17,000  Level Boston Center
Wed 06:30:26 PM 42.2847 -75.7686 66° East 327 376 17,000  Level Boston Center
Wed 06:31:26 PM 42.3108 -75.6606 72° East 332 382 17,000  Level Boston Center
Wed 06:32:26 PM 42.3394 -75.5383 72° East 337 388 17,000  Level Boston Center
Wed 06:33:26 PM 42.3697 -75.4161 71° East 337 388 17,000  Level Boston Center
Wed 06:34:26 PM 42.3978 -75.2939 73° East 342 394 17,000  Level Boston Center
Wed 06:35:26 PM 42.4300 -75.1686 71° East 337 388 17,000  Level Boston Center
Wed 06:36:26 PM 42.4581 -75.0489 72° East 337 388 17,000 -250 Level Boston Center
Wed 06:37:26 PM 42.4878 -74.9261 72° East 337 388 16,500 -1,050 Descending Boston Center
Wed 06:38:26 PM 42.5178 -74.7978 72° East 337 388 14,900 -1,486 Descending Boston Center
Wed 06:39:15 PM 42.5403 -74.7086 71° East 313 360 13,800 -1,377 Descending Boston Center
Wed 06:40:28 PM 42.5722 -74.5658 73° East 326 375 12,100 -1,420 Descending Boston Center
Wed 06:41:26 PM 42.6014 -74.4569 70° East 318 366 10,700 -1,525 Descending Boston Center
Wed 06:42:26 PM 42.6383 -74.3622 62° Northeast 285 328 9,100 -1,500 Descending Boston Center
Wed 06:43:26 PM 42.6692 -74.2669 66° East 271 312 7,700 -1,500 Descending Boston Center
Wed 06:43:42 PM 42.6778 -74.2475 59° Northeast 272 313 7,200 -1,600 Descending Boston Center
Wed 06:44:26 PM 42.6997 -74.1775 67° East 261 300 6,100 -1,475 Descending Boston Center
Wed 06:44:43 PM 42.7064 -74.1581 65° Northeast 259 298 5,700 -1,481 Descending Boston Center
Wed 06:45:43 PM 42.7367 -74.0767 63° Northeast 238 274 4,200 -1,357 Descending Boston Center
Wed 06:46:38 PM 42.7628 -74.0011 65° Northeast 233 268 3,100 -1,200 Descending Boston Center

Login

Don't have an account? Register now (free) for customized features, flight alerts, and more!